Forside
METAR-TAF:

METAR-TAF

Lufthavne :

Ottumwa Industrial Airport

Ottumwa, Iowa, USA

Breddekreds: 41-06-24N, længdekreds: 092-26-53W, højde: 258 m

Aktuelle vejr

Denne rapport blev lavet for 50 minutter siden, kl. 02:53 UTC
Vind 4 kt fra nordvest
Temperatur -4°C
Fugtighed 80%
Tryk 1020 hPa
Sigt: 16.1 km
skyfri

METAR: KOTM 280253Z AUTO 32004KT 10SM CLR M04/M07 A3013 RMK AO2 SLP215 T10441072 51005

Tid: 21:43 (03:43 UTC)

Vejrudsigter

Denne rapport blev lavet for 4 timer og 9 minutter siden, kl. 23:34 UTC
Foreløbig gælder fra 28 på 00 UTC til 28 på 24 UTC
Vind 10 kt fra nordnordvest
Sigt: 10 km
skyfri
Fra 28 på 0900 UTC
Vind 3 kt fra varierende retninger
Sigt: 10 km
Overskyet i en højde af 3000 ft
Fra 28 på 1500 UTC
Vind 5 kt fra nordnordvest
Sigt: 10 km
Brudte skyer i en højde af 2000 ft
Fra 28 på 2200 UTC
Vind 10 kt fra nordnordvest
Sigt: 10 km
Brudte skyer i en højde af 3500 ft

TAF: KOTM 272334Z 2800/2824 34010KT P6SM SKC FM280900 VRB03KT P6SM OVC030 FM281500 33005KT P6SM BKN020 FM282200 33010KT P6SM BKN035

Vejrobservationer og prognoser fra mere end 4000 lufthavne (METAR og TAF).

De gule og røde prikker repræsenterer de meteorologiske stationer.

Flyt musen over at se navnet på stationen.

Så klik over at se vejr observationer og prognoser.

At skifte det kort: Klik på de grønne knapper med et sort kors for at zoome ind; på den grønne knap med en bindestreg for at zoome ud; eller på de grønne pile for tilstødende kort.


METAR-TAF: